sensor_id;sensor_type;location;lat;lon;timestamp;P1;durP1;ratioP1;P2;durP2;ratioP2
33902;SDS011;20194;50.950;5.346;2023-05-07T00:01:50;5.13;;;4.30;;
33902;SDS011;20194;50.950;5.346;2023-05-07T00:04:15;8.75;;;4.72;;
33902;SDS011;20194;50.950;5.346;2023-05-07T00:06:41;7.53;;;4.65;;
33902;SDS011;20194;50.950;5.346;2023-05-07T00:09:07;7.25;;;4.68;;
33902;SDS011;20194;50.950;5.346;2023-05-07T00:11:32;4.45;;;4.05;;
33902;SDS011;20194;50.950;5.346;2023-05-07T00:13:59;8.13;;;4.32;;
33902;SDS011;20194;50.950;5.346;2023-05-07T00:16:24;6.80;;;4.22;;
33902;SDS011;20194;50.950;5.346;2023-05-07T00:18:50;7.22;;;4.50;;
33902;SDS011;20194;50.950;5.346;2023-05-07T00:21:16;7.95;;;4.93;;
33902;SDS011;20194;50.950;5.346;2023-05-07T00:23:42;10.27;;;4.80;;
33902;SDS011;20194;50.950;5.346;2023-05-07T00:26:07;9.80;;;4.30;;
33902;SDS011;20194;50.950;5.346;2023-05-07T00:28:33;8.52;;;4.72;;
33902;SDS011;20194;50.950;5.346;2023-05-07T00:30:59;8.90;;;4.40;;
33902;SDS011;20194;50.950;5.346;2023-05-07T00:33:25;8.20;;;4.97;;
33902;SDS011;20194;50.950;5.346;2023-05-07T00:35:52;7.55;;;4.35;;
33902;SDS011;20194;50.950;5.346;2023-05-07T00:38:19;5.47;;;4.07;;
33902;SDS011;20194;50.950;5.346;2023-05-07T00:40:45;5.95;;;4.13;;
33902;SDS011;20194;50.950;5.346;2023-05-07T00:43:10;8.68;;;4.72;;
33902;SDS011;20194;50.950;5.346;2023-05-07T00:45:37;8.05;;;4.45;;
33902;SDS011;20194;50.950;5.346;2023-05-07T00:48:04;8.40;;;5.05;;
33902;SDS011;20194;50.950;5.346;2023-05-07T00:50:30;7.55;;;4.93;;
33902;SDS011;20194;50.950;5.346;2023-05-07T00:52:57;11.77;;;4.72;;
33902;SDS011;20194;50.950;5.346;2023-05-07T00:55:24;7.45;;;4.40;;
33902;SDS011;20194;50.950;5.346;2023-05-07T00:57:50;8.30;;;5.07;;
33902;SDS011;20194;50.950;5.346;2023-05-07T01:00:16;6.88;;;4.80;;
33902;SDS011;20194;50.950;5.346;2023-05-07T01:02:43;8.93;;;4.72;;
33902;SDS011;20194;50.950;5.346;2023-05-07T01:05:11;6.38;;;4.63;;
33902;SDS011;20194;50.950;5.346;2023-05-07T01:07:38;8.10;;;4.47;;
33902;SDS011;20194;50.950;5.346;2023-05-07T01:10:06;14.95;;;5.68;;
33902;SDS011;20194;50.950;5.346;2023-05-07T01:12:33;7.70;;;5.00;;
33902;SDS011;20194;50.950;5.346;2023-05-07T01:15:00;11.75;;;5.47;;
33902;SDS011;20194;50.950;5.346;2023-05-07T01:17:26;7.20;;;4.88;;
33902;SDS011;20194;50.950;5.346;2023-05-07T01:19:52;10.38;;;5.10;;
33902;SDS011;20194;50.950;5.346;2023-05-07T01:22:34;6.63;;;5.20;;
33902;SDS011;20194;50.950;5.346;2023-05-07T01:25:02;6.85;;;4.80;;
33902;SDS011;20194;50.950;5.346;2023-05-07T01:27:28;8.18;;;5.07;;
33902;SDS011;20194;50.950;5.346;2023-05-07T01:29:54;6.22;;;4.53;;
33902;SDS011;20194;50.950;5.346;2023-05-07T01:32:23;5.95;;;4.95;;
33902;SDS011;20194;50.950;5.346;2023-05-07T01:34:58;8.30;;;4.95;;
33902;SDS011;20194;50.950;5.346;2023-05-07T01:37:26;7.00;;;4.50;;
33902;SDS011;20194;50.950;5.346;2023-05-07T01:39:52;8.35;;;4.82;;
33902;SDS011;20194;50.950;5.346;2023-05-07T01:42:19;7.43;;;4.43;;
33902;SDS011;20194;50.950;5.346;2023-05-07T01:44:45;6.47;;;4.53;;
33902;SDS011;20194;50.950;5.346;2023-05-07T01:47:11;7.35;;;4.50;;
33902;SDS011;20194;50.950;5.346;2023-05-07T01:49:38;6.20;;;4.47;;
33902;SDS011;20194;50.950;5.346;2023-05-07T01:52:05;7.65;;;5.32;;
33902;SDS011;20194;50.950;5.346;2023-05-07T01:54:30;6.80;;;4.57;;
33902;SDS011;20194;50.950;5.346;2023-05-07T01:56:56;8.05;;;4.80;;
33902;SDS011;20194;50.950;5.346;2023-05-07T01:59:22;9.77;;;4.53;;
33902;SDS011;20194;50.950;5.346;2023-05-07T02:01:48;7.20;;;4.68;;
33902;SDS011;20194;50.950;5.346;2023-05-07T02:04:14;14.30;;;4.70;;
33902;SDS011;20194;50.950;5.346;2023-05-07T02:06:39;8.80;;;4.97;;
33902;SDS011;20194;50.950;5.346;2023-05-07T02:09:05;7.72;;;5.13;;
33902;SDS011;20194;50.950;5.346;2023-05-07T02:11:31;9.95;;;4.53;;
33902;SDS011;20194;50.950;5.346;2023-05-07T02:13:57;7.38;;;4.88;;
33902;SDS011;20194;50.950;5.346;2023-05-07T02:16:22;9.13;;;4.55;;
33902;SDS011;20194;50.950;5.346;2023-05-07T02:18:48;8.15;;;5.78;;
33902;SDS011;20194;50.950;5.346;2023-05-07T02:21:15;9.93;;;5.13;;
33902;SDS011;20194;50.950;5.346;2023-05-07T02:23:41;10.77;;;5.53;;
33902;SDS011;20194;50.950;5.346;2023-05-07T02:26:06;9.05;;;5.50;;
33902;SDS011;20194;50.950;5.346;2023-05-07T02:28:32;11.23;;;5.80;;
33902;SDS011;20194;50.950;5.346;2023-05-07T02:31:00;9.73;;;6.10;;
33902;SDS011;20194;50.950;5.346;2023-05-07T02:33:28;11.25;;;6.75;;
33902;SDS011;20194;50.950;5.346;2023-05-07T02:35:53;6.45;;;5.38;;
33902;SDS011;20194;50.950;5.346;2023-05-07T02:38:19;9.23;;;5.35;;
33902;SDS011;20194;50.950;5.346;2023-05-07T02:40:45;9.05;;;5.75;;
33902;SDS011;20194;50.950;5.346;2023-05-07T02:43:10;10.00;;;5.93;;
33902;SDS011;20194;50.950;5.346;2023-05-07T02:45:36;8.30;;;5.50;;
33902;SDS011;20194;50.950;5.346;2023-05-07T02:48:02;10.13;;;6.20;;
33902;SDS011;20194;50.950;5.346;2023-05-07T02:50:29;6.13;;;5.32;;
33902;SDS011;20194;50.950;5.346;2023-05-07T02:52:55;9.77;;;6.65;;
33902;SDS011;20194;50.950;5.346;2023-05-07T02:55:21;9.75;;;6.15;;
33902;SDS011;20194;50.950;5.346;2023-05-07T02:57:47;11.15;;;6.20;;
33902;SDS011;20194;50.950;5.346;2023-05-07T03:00:19;10.82;;;6.43;;
33902;SDS011;20194;50.950;5.346;2023-05-07T03:02:46;8.07;;;5.80;;
33902;SDS011;20194;50.950;5.346;2023-05-07T03:05:11;10.20;;;6.63;;
33902;SDS011;20194;50.950;5.346;2023-05-07T03:07:39;11.05;;;5.88;;
33902;SDS011;20194;50.950;5.346;2023-05-07T03:10:06;13.15;;;6.70;;
33902;SDS011;20194;50.950;5.346;2023-05-07T03:12:32;11.13;;;6.57;;
33902;SDS011;20194;50.950;5.346;2023-05-07T03:14:57;10.77;;;6.10;;
33902;SDS011;20194;50.950;5.346;2023-05-07T03:17:23;9.68;;;6.10;;
33902;SDS011;20194;50.950;5.346;2023-05-07T03:19:49;9.75;;;6.50;;
33902;SDS011;20194;50.950;5.346;2023-05-07T03:22:14;10.25;;;6.70;;
33902;SDS011;20194;50.950;5.346;2023-05-07T03:24:40;11.57;;;6.55;;
33902;SDS011;20194;50.950;5.346;2023-05-07T03:27:06;10.60;;;6.57;;
33902;SDS011;20194;50.950;5.346;2023-05-07T03:29:32;10.45;;;6.75;;
33902;SDS011;20194;50.950;5.346;2023-05-07T03:31:57;9.90;;;6.38;;
33902;SDS011;20194;50.950;5.346;2023-05-07T03:34:24;11.82;;;6.60;;
33902;SDS011;20194;50.950;5.346;2023-05-07T03:36:49;17.50;;;6.57;;
33902;SDS011;20194;50.950;5.346;2023-05-07T03:39:15;11.73;;;6.50;;
33902;SDS011;20194;50.950;5.346;2023-05-07T03:41:41;12.27;;;6.57;;
33902;SDS011;20194;50.950;5.346;2023-05-07T03:44:07;10.77;;;6.00;;
33902;SDS011;20194;50.950;5.346;2023-05-07T03:46:33;10.80;;;6.32;;
33902;SDS011;20194;50.950;5.346;2023-05-07T03:48:59;9.60;;;6.50;;
33902;SDS011;20194;50.950;5.346;2023-05-07T03:51:25;12.13;;;6.50;;
33902;SDS011;20194;50.950;5.346;2023-05-07T03:53:51;9.57;;;6.60;;
33902;SDS011;20194;50.950;5.346;2023-05-07T03:56:22;11.13;;;6.07;;
33902;SDS011;20194;50.950;5.346;2023-05-07T03:58:48;7.60;;;6.00;;
33902;SDS011;20194;50.950;5.346;2023-05-07T04:01:13;9.77;;;6.43;;
33902;SDS011;20194;50.950;5.346;2023-05-07T04:03:39;10.75;;;6.82;;
33902;SDS011;20194;50.950;5.346;2023-05-07T04:06:06;14.52;;;6.25;;
33902;SDS011;20194;50.950;5.346;2023-05-07T04:08:31;12.57;;;7.00;;
33902;SDS011;20194;50.950;5.346;2023-05-07T04:10:58;11.68;;;6.60;;
33902;SDS011;20194;50.950;5.346;2023-05-07T04:13:24;13.25;;;6.60;;
33902;SDS011;20194;50.950;5.346;2023-05-07T04:15:51;12.77;;;5.85;;
33902;SDS011;20194;50.950;5.346;2023-05-07T04:18:17;9.90;;;6.60;;
33902;SDS011;20194;50.950;5.346;2023-05-07T04:20:43;12.98;;;6.28;;
33902;SDS011;20194;50.950;5.346;2023-05-07T04:23:09;7.90;;;6.30;;
33902;SDS011;20194;50.950;5.346;2023-05-07T04:25:35;11.05;;;6.65;;
33902;SDS011;20194;50.950;5.346;2023-05-07T04:28:01;10.25;;;6.10;;
33902;SDS011;20194;50.950;5.346;2023-05-07T04:30:26;12.65;;;6.28;;
33902;SDS011;20194;50.950;5.346;2023-05-07T04:32:52;11.43;;;5.85;;
33902;SDS011;20194;50.950;5.346;2023-05-07T04:35:18;9.85;;;6.30;;
33902;SDS011;20194;50.950;5.346;2023-05-07T04:37:44;9.50;;;5.72;;
33902;SDS011;20194;50.950;5.346;2023-05-07T04:40:09;9.90;;;5.85;;
33902;SDS011;20194;50.950;5.346;2023-05-07T04:42:35;9.23;;;5.57;;
33902;SDS011;20194;50.950;5.346;2023-05-07T04:45:01;7.95;;;5.47;;
33902;SDS011;20194;50.950;5.346;2023-05-07T04:47:27;9.73;;;6.20;;
33902;SDS011;20194;50.950;5.346;2023-05-07T04:49:53;9.23;;;5.68;;
33902;SDS011;20194;50.950;5.346;2023-05-07T04:52:19;10.40;;;5.53;;
33902;SDS011;20194;50.950;5.346;2023-05-07T04:54:45;9.50;;;5.45;;
33902;SDS011;20194;50.950;5.346;2023-05-07T04:57:11;9.93;;;6.22;;
33902;SDS011;20194;50.950;5.346;2023-05-07T04:59:37;7.15;;;5.68;;
33902;SDS011;20194;50.950;5.346;2023-05-07T05:02:03;16.00;;;6.22;;
33902;SDS011;20194;50.950;5.346;2023-05-07T05:04:31;7.63;;;5.60;;
33902;SDS011;20194;50.950;5.346;2023-05-07T05:06:57;8.75;;;5.95;;
33902;SDS011;20194;50.950;5.346;2023-05-07T05:09:23;8.40;;;6.32;;
33902;SDS011;20194;50.950;5.346;2023-05-07T05:11:48;11.48;;;6.32;;
33902;SDS011;20194;50.950;5.346;2023-05-07T05:14:14;9.48;;;5.95;;
33902;SDS011;20194;50.950;5.346;2023-05-07T05:16:40;11.32;;;6.55;;
33902;SDS011;20194;50.950;5.346;2023-05-07T05:19:05;9.35;;;6.60;;
33902;SDS011;20194;50.950;5.346;2023-05-07T05:21:31;10.20;;;7.25;;
33902;SDS011;20194;50.950;5.346;2023-05-07T05:23:57;12.07;;;6.97;;
33902;SDS011;20194;50.950;5.346;2023-05-07T05:26:23;12.45;;;7.15;;
33902;SDS011;20194;50.950;5.346;2023-05-07T05:28:49;11.20;;;6.72;;
33902;SDS011;20194;50.950;5.346;2023-05-07T05:31:15;11.30;;;7.10;;
33902;SDS011;20194;50.950;5.346;2023-05-07T05:33:42;9.82;;;6.80;;
33902;SDS011;20194;50.950;5.346;2023-05-07T05:36:10;9.95;;;7.45;;
33902;SDS011;20194;50.950;5.346;2023-05-07T05:38:38;13.70;;;8.20;;
33902;SDS011;20194;50.950;5.346;2023-05-07T05:41:06;12.90;;;7.53;;
33902;SDS011;20194;50.950;5.346;2023-05-07T05:43:32;13.32;;;7.53;;
33902;SDS011;20194;50.950;5.346;2023-05-07T05:45:58;10.13;;;7.93;;
33902;SDS011;20194;50.950;5.346;2023-05-07T05:48:24;14.75;;;8.55;;
33902;SDS011;20194;50.950;5.346;2023-05-07T05:50:49;13.80;;;8.07;;
33902;SDS011;20194;50.950;5.346;2023-05-07T05:53:15;14.80;;;6.90;;
33902;SDS011;20194;50.950;5.346;2023-05-07T05:55:41;10.68;;;7.03;;
33902;SDS011;20194;50.950;5.346;2023-05-07T05:58:07;15.18;;;7.78;;
33902;SDS011;20194;50.950;5.346;2023-05-07T06:00:34;11.20;;;7.70;;
33902;SDS011;20194;50.950;5.346;2023-05-07T06:03:00;11.50;;;7.15;;
33902;SDS011;20194;50.950;5.346;2023-05-07T06:05:25;11.10;;;6.80;;
33902;SDS011;20194;50.950;5.346;2023-05-07T06:07:51;9.80;;;6.50;;
33902;SDS011;20194;50.950;5.346;2023-05-07T06:10:17;13.70;;;6.88;;
33902;SDS011;20194;50.950;5.346;2023-05-07T06:12:42;11.45;;;7.55;;
33902;SDS011;20194;50.950;5.346;2023-05-07T06:15:09;12.18;;;7.78;;
33902;SDS011;20194;50.950;5.346;2023-05-07T06:17:35;11.90;;;7.82;;
33902;SDS011;20194;50.950;5.346;2023-05-07T06:20:00;12.77;;;7.50;;
33902;SDS011;20194;50.950;5.346;2023-05-07T06:22:27;9.70;;;6.78;;
33902;SDS011;20194;50.950;5.346;2023-05-07T06:24:52;12.25;;;7.40;;
33902;SDS011;20194;50.950;5.346;2023-05-07T06:27:18;9.93;;;7.13;;
33902;SDS011;20194;50.950;5.346;2023-05-07T06:29:44;11.43;;;7.50;;
33902;SDS011;20194;50.950;5.346;2023-05-07T06:32:10;13.68;;;7.80;;
33902;SDS011;20194;50.950;5.346;2023-05-07T06:34:36;13.20;;;7.03;;
33902;SDS011;20194;50.950;5.346;2023-05-07T06:37:02;13.65;;;7.53;;
33902;SDS011;20194;50.950;5.346;2023-05-07T06:39:28;11.30;;;7.18;;
33902;SDS011;20194;50.950;5.346;2023-05-07T06:41:54;11.95;;;6.97;;
33902;SDS011;20194;50.950;5.346;2023-05-07T06:44:20;13.93;;;7.55;;
33902;SDS011;20194;50.950;5.346;2023-05-07T06:46:45;12.13;;;6.07;;
33902;SDS011;20194;50.950;5.346;2023-05-07T06:49:14;11.07;;;7.03;;
33902;SDS011;20194;50.950;5.346;2023-05-07T06:51:40;7.93;;;6.15;;
33902;SDS011;20194;50.950;5.346;2023-05-07T06:54:06;11.77;;;5.30;;
33902;SDS011;20194;50.950;5.346;2023-05-07T06:56:32;10.02;;;5.85;;
33902;SDS011;20194;50.950;5.346;2023-05-07T06:59:02;6.85;;;4.65;;
33902;SDS011;20194;50.950;5.346;2023-05-07T07:01:29;8.98;;;5.40;;
33902;SDS011;20194;50.950;5.346;2023-05-07T07:03:55;10.45;;;6.05;;
33902;SDS011;20194;50.950;5.346;2023-05-07T07:06:20;9.98;;;6.05;;
33902;SDS011;20194;50.950;5.346;2023-05-07T07:08:46;9.77;;;5.43;;
33902;SDS011;20194;50.950;5.346;2023-05-07T07:11:12;11.18;;;4.88;;
33902;SDS011;20194;50.950;5.346;2023-05-07T07:13:37;12.05;;;6.03;;
33902;SDS011;20194;50.950;5.346;2023-05-07T07:16:03;8.18;;;5.50;;
33902;SDS011;20194;50.950;5.346;2023-05-07T07:18:29;7.30;;;5.15;;
33902;SDS011;20194;50.950;5.346;2023-05-07T07:20:55;9.90;;;4.70;;
33902;SDS011;20194;50.950;5.346;2023-05-07T07:23:20;9.10;;;5.22;;
33902;SDS011;20194;50.950;5.346;2023-05-07T07:25:46;7.68;;;5.40;;
33902;SDS011;20194;50.950;5.346;2023-05-07T07:28:12;7.45;;;5.57;;
33902;SDS011;20194;50.950;5.346;2023-05-07T07:30:38;9.63;;;5.72;;
33902;SDS011;20194;50.950;5.346;2023-05-07T07:33:03;10.23;;;5.45;;
33902;SDS011;20194;50.950;5.346;2023-05-07T07:35:30;10.82;;;5.70;;
33902;SDS011;20194;50.950;5.346;2023-05-07T07:37:59;7.80;;;5.35;;
33902;SDS011;20194;50.950;5.346;2023-05-07T07:40:25;7.35;;;5.00;;
33902;SDS011;20194;50.950;5.346;2023-05-07T07:42:51;7.10;;;5.25;;
33902;SDS011;20194;50.950;5.346;2023-05-07T07:45:18;12.20;;;5.43;;
33902;SDS011;20194;50.950;5.346;2023-05-07T07:47:43;12.30;;;5.63;;
33902;SDS011;20194;50.950;5.346;2023-05-07T07:50:09;8.00;;;5.50;;
33902;SDS011;20194;50.950;5.346;2023-05-07T07:52:35;10.43;;;5.43;;
33902;SDS011;20194;50.950;5.346;2023-05-07T07:55:01;9.40;;;5.25;;
33902;SDS011;20194;50.950;5.346;2023-05-07T07:57:27;9.05;;;5.28;;
33902;SDS011;20194;50.950;5.346;2023-05-07T07:59:53;9.00;;;5.00;;
33902;SDS011;20194;50.950;5.346;2023-05-07T08:02:19;8.20;;;5.65;;
33902;SDS011;20194;50.950;5.346;2023-05-07T08:04:45;12.60;;;5.00;;
33902;SDS011;20194;50.950;5.346;2023-05-07T08:07:11;7.47;;;5.03;;
33902;SDS011;20194;50.950;5.346;2023-05-07T08:09:37;9.02;;;5.28;;
33902;SDS011;20194;50.950;5.346;2023-05-07T08:12:04;9.02;;;5.28;;
33902;SDS011;20194;50.950;5.346;2023-05-07T08:14:34;8.88;;;4.97;;
33902;SDS011;20194;50.950;5.346;2023-05-07T08:17:01;7.88;;;4.95;;
33902;SDS011;20194;50.950;5.346;2023-05-07T08:19:27;13.02;;;5.53;;
33902;SDS011;20194;50.950;5.346;2023-05-07T08:21:53;9.38;;;5.22;;
33902;SDS011;20194;50.950;5.346;2023-05-07T08:24:19;6.63;;;4.65;;
33902;SDS011;20194;50.950;5.346;2023-05-07T08:26:44;10.82;;;4.40;;
33902;SDS011;20194;50.950;5.346;2023-05-07T08:29:10;12.57;;;4.53;;
33902;SDS011;20194;50.950;5.346;2023-05-07T08:31:36;10.90;;;4.45;;
33902;SDS011;20194;50.950;5.346;2023-05-07T08:34:03;7.57;;;4.30;;
33902;SDS011;20194;50.950;5.346;2023-05-07T08:36:29;6.07;;;4.32;;
33902;SDS011;20194;50.950;5.346;2023-05-07T08:38:55;7.18;;;4.07;;
33902;SDS011;20194;50.950;5.346;2023-05-07T08:41:21;11.20;;;4.53;;
33902;SDS011;20194;50.950;5.346;2023-05-07T08:43:47;10.48;;;4.20;;
33902;SDS011;20194;50.950;5.346;2023-05-07T08:46:17;11.10;;;4.68;;
33902;SDS011;20194;50.950;5.346;2023-05-07T08:48:44;6.20;;;4.10;;
33902;SDS011;20194;50.950;5.346;2023-05-07T08:51:13;7.18;;;4.93;;
33902;SDS011;20194;50.950;5.346;2023-05-07T08:53:41;11.63;;;4.80;;
33902;SDS011;20194;50.950;5.346;2023-05-07T08:56:08;12.25;;;5.40;;
33902;SDS011;20194;50.950;5.346;2023-05-07T08:58:34;7.95;;;5.15;;
33902;SDS011;20194;50.950;5.346;2023-05-07T09:01:06;10.18;;;5.38;;
33902;SDS011;20194;50.950;5.346;2023-05-07T09:03:34;10.27;;;5.07;;
33902;SDS011;20194;50.950;5.346;2023-05-07T09:06:01;19.13;;;6.60;;
33902;SDS011;20194;50.950;5.346;2023-05-07T09:08:27;7.13;;;5.63;;
33902;SDS011;20194;50.950;5.346;2023-05-07T09:10:53;10.02;;;5.03;;
33902;SDS011;20194;50.950;5.346;2023-05-07T09:13:19;12.35;;;5.38;;
33902;SDS011;20194;50.950;5.346;2023-05-07T09:15:45;6.97;;;5.10;;
33902;SDS011;20194;50.950;5.346;2023-05-07T09:18:11;8.35;;;5.00;;
33902;SDS011;20194;50.950;5.346;2023-05-07T09:20:37;17.33;;;6.53;;
33902;SDS011;20194;50.950;5.346;2023-05-07T09:23:05;13.93;;;6.03;;
33902;SDS011;20194;50.950;5.346;2023-05-07T09:25:32;12.63;;;5.50;;
33902;SDS011;20194;50.950;5.346;2023-05-07T09:28:00;11.95;;;5.43;;
33902;SDS011;20194;50.950;5.346;2023-05-07T09:30:30;11.60;;;6.05;;
33902;SDS011;20194;50.950;5.346;2023-05-07T09:33:01;6.88;;;4.53;;
33902;SDS011;20194;50.950;5.346;2023-05-07T09:35:30;10.60;;;6.43;;
33902;SDS011;20194;50.950;5.346;2023-05-07T09:37:56;10.13;;;6.25;;
33902;SDS011;20194;50.950;5.346;2023-05-07T09:40:24;14.35;;;5.22;;
33902;SDS011;20194;50.950;5.346;2023-05-07T09:42:51;11.77;;;6.00;;
33902;SDS011;20194;50.950;5.346;2023-05-07T09:45:26;13.18;;;5.97;;
33902;SDS011;20194;50.950;5.346;2023-05-07T09:47:53;12.23;;;5.53;;
33902;SDS011;20194;50.950;5.346;2023-05-07T09:50:22;11.95;;;5.22;;
33902;SDS011;20194;50.950;5.346;2023-05-07T09:52:55;8.63;;;5.65;;
33902;SDS011;20194;50.950;5.346;2023-05-07T09:55:21;10.52;;;5.38;;
33902;SDS011;20194;50.950;5.346;2023-05-07T09:57:51;12.63;;;5.68;;
33902;SDS011;20194;50.950;5.346;2023-05-07T10:00:20;12.05;;;4.80;;
33902;SDS011;20194;50.950;5.346;2023-05-07T10:02:48;10.10;;;4.47;;
33902;SDS011;20194;50.950;5.346;2023-05-07T10:05:16;9.73;;;4.38;;
33902;SDS011;20194;50.950;5.346;2023-05-07T10:07:43;11.27;;;5.30;;
33902;SDS011;20194;50.950;5.346;2023-05-07T10:10:10;9.57;;;4.47;;
33902;SDS011;20194;50.950;5.346;2023-05-07T10:12:36;8.77;;;4.68;;
33902;SDS011;20194;50.950;5.346;2023-05-07T10:15:08;11.55;;;5.20;;
33902;SDS011;20194;50.950;5.346;2023-05-07T10:17:35;14.15;;;5.20;;
33902;SDS011;20194;50.950;5.346;2023-05-07T10:20:02;14.57;;;5.15;;
33902;SDS011;20194;50.950;5.346;2023-05-07T10:22:30;14.32;;;5.70;;
33902;SDS011;20194;50.950;5.346;2023-05-07T10:25:02;11.02;;;5.30;;
33902;SDS011;20194;50.950;5.346;2023-05-07T10:27:31;14.95;;;5.75;;
33902;SDS011;20194;50.950;5.346;2023-05-07T10:30:01;8.90;;;5.10;;
33902;SDS011;20194;50.950;5.346;2023-05-07T10:32:53;16.00;;;5.57;;
33902;SDS011;20194;50.950;5.346;2023-05-07T10:35:22;12.88;;;5.93;;
33902;SDS011;20194;50.950;5.346;2023-05-07T10:37:54;14.25;;;5.20;;
33902;SDS011;20194;50.950;5.346;2023-05-07T10:40:20;10.18;;;5.68;;
33902;SDS011;20194;50.950;5.346;2023-05-07T10:42:56;11.93;;;6.07;;
33902;SDS011;20194;50.950;5.346;2023-05-07T10:45:26;12.13;;;6.68;;
33902;SDS011;20194;50.950;5.346;2023-05-07T10:50:38;18.30;;;6.15;;
33902;SDS011;20194;50.950;5.346;2023-05-07T10:55:44;10.38;;;6.68;;
33902;SDS011;20194;50.950;5.346;2023-05-07T11:00:46;13.35;;;5.70;;
33902;SDS011;20194;50.950;5.346;2023-05-07T11:03:13;9.88;;;6.22;;
33902;SDS011;20194;50.950;5.346;2023-05-07T11:05:40;18.63;;;6.05;;
33902;SDS011;20194;50.950;5.346;2023-05-07T11:08:07;17.13;;;6.32;;
33902;SDS011;20194;50.950;5.346;2023-05-07T11:13:18;13.75;;;6.07;;
33902;SDS011;20194;50.950;5.346;2023-05-07T11:16:03;15.55;;;6.88;;
33902;SDS011;20194;50.950;5.346;2023-05-07T11:18:45;11.73;;;5.82;;
33902;SDS011;20194;50.950;5.346;2023-05-07T11:21:13;13.67;;;6.77;;
33902;SDS011;20194;50.950;5.346;2023-05-07T11:24:01;11.68;;;5.35;;
33902;SDS011;20194;50.950;5.346;2023-05-07T11:26:29;11.23;;;5.13;;
33902;SDS011;20194;50.950;5.346;2023-05-07T11:28:56;14.63;;;5.38;;
33902;SDS011;20194;50.950;5.346;2023-05-07T11:31:26;12.70;;;5.90;;
33902;SDS011;20194;50.950;5.346;2023-05-07T11:33:53;12.68;;;5.95;;
33902;SDS011;20194;50.950;5.346;2023-05-07T11:36:21;12.80;;;5.20;;
33902;SDS011;20194;50.950;5.346;2023-05-07T11:38:48;15.55;;;5.93;;
33902;SDS011;20194;50.950;5.346;2023-05-07T11:41:15;18.38;;;6.22;;
33902;SDS011;20194;50.950;5.346;2023-05-07T11:43:55;12.18;;;5.05;;
33902;SDS011;20194;50.950;5.346;2023-05-07T11:46:22;9.10;;;5.53;;
33902;SDS011;20194;50.950;5.346;2023-05-07T11:48:48;13.05;;;6.22;;
33902;SDS011;20194;50.950;5.346;2023-05-07T11:51:18;8.85;;;5.43;;
33902;SDS011;20194;50.950;5.346;2023-05-07T11:53:44;11.13;;;5.80;;
33902;SDS011;20194;50.950;5.346;2023-05-07T11:56:11;12.88;;;7.03;;
33902;SDS011;20194;50.950;5.346;2023-05-07T11:58:39;10.43;;;5.97;;
33902;SDS011;20194;50.950;5.346;2023-05-07T12:01:09;12.93;;;5.85;;
33902;SDS011;20194;50.950;5.346;2023-05-07T12:03:36;12.60;;;6.05;;
33902;SDS011;20194;50.950;5.346;2023-05-07T12:06:07;12.15;;;5.20;;
33902;SDS011;20194;50.950;5.346;2023-05-07T12:08:35;9.73;;;4.28;;
33902;SDS011;20194;50.950;5.346;2023-05-07T12:11:02;9.40;;;4.75;;
33902;SDS011;20194;50.950;5.346;2023-05-07T12:13:33;12.98;;;5.45;;
33902;SDS011;20194;50.950;5.346;2023-05-07T12:15:59;9.40;;;5.30;;
33902;SDS011;20194;50.950;5.346;2023-05-07T12:18:28;8.77;;;5.03;;
33902;SDS011;20194;50.950;5.346;2023-05-07T12:20:55;14.18;;;5.18;;
33902;SDS011;20194;50.950;5.346;2023-05-07T12:23:21;17.17;;;7.43;;
33902;SDS011;20194;50.950;5.346;2023-05-07T12:25:47;11.90;;;4.65;;
33902;SDS011;20194;50.950;5.346;2023-05-07T12:28:17;8.77;;;4.75;;
33902;SDS011;20194;50.950;5.346;2023-05-07T12:30:44;11.70;;;4.40;;
33902;SDS011;20194;50.950;5.346;2023-05-07T12:33:11;13.07;;;4.80;;
33902;SDS011;20194;50.950;5.346;2023-05-07T12:35:41;11.30;;;4.90;;
33902;SDS011;20194;50.950;5.346;2023-05-07T12:38:08;8.90;;;4.55;;
33902;SDS011;20194;50.950;5.346;2023-05-07T12:40:40;12.05;;;4.15;;
33902;SDS011;20194;50.950;5.346;2023-05-07T12:43:07;9.18;;;3.90;;
33902;SDS011;20194;50.950;5.346;2023-05-07T12:45:41;6.28;;;3.53;;
33902;SDS011;20194;50.950;5.346;2023-05-07T12:48:07;11.75;;;4.55;;
33902;SDS011;20194;50.950;5.346;2023-05-07T12:50:35;8.43;;;3.33;;
33902;SDS011;20194;50.950;5.346;2023-05-07T12:53:00;6.97;;;3.67;;
33902;SDS011;20194;50.950;5.346;2023-05-07T12:55:31;9.00;;;3.95;;
33902;SDS011;20194;50.950;5.346;2023-05-07T12:57:57;8.25;;;3.70;;
33902;SDS011;20194;50.950;5.346;2023-05-07T13:00:33;9.15;;;3.55;;
33902;SDS011;20194;50.950;5.346;2023-05-07T13:03:04;5.13;;;2.95;;
33902;SDS011;20194;50.950;5.346;2023-05-07T13:05:31;10.32;;;3.33;;
33902;SDS011;20194;50.950;5.346;2023-05-07T13:07:57;5.50;;;2.95;;
33902;SDS011;20194;50.950;5.346;2023-05-07T13:10:23;7.20;;;3.78;;
33902;SDS011;20194;50.950;5.346;2023-05-07T13:12:50;6.13;;;3.05;;
33902;SDS011;20194;50.950;5.346;2023-05-07T13:15:16;8.43;;;2.72;;
33902;SDS011;20194;50.950;5.346;2023-05-07T13:17:42;8.95;;;3.75;;
33902;SDS011;20194;50.950;5.346;2023-05-07T13:20:11;11.15;;;4.03;;
33902;SDS011;20194;50.950;5.346;2023-05-07T13:22:40;6.38;;;3.20;;
33902;SDS011;20194;50.950;5.346;2023-05-07T13:25:06;8.77;;;3.33;;
33902;SDS011;20194;50.950;5.346;2023-05-07T13:27:32;11.80;;;4.47;;
33902;SDS011;20194;50.950;5.346;2023-05-07T13:30:01;8.27;;;3.33;;
33902;SDS011;20194;50.950;5.346;2023-05-07T13:32:28;6.28;;;3.05;;
33902;SDS011;20194;50.950;5.346;2023-05-07T13:34:54;8.15;;;3.38;;
33902;SDS011;20194;50.950;5.346;2023-05-07T13:37:20;6.95;;;2.72;;
33902;SDS011;20194;50.950;5.346;2023-05-07T13:39:46;9.95;;;3.53;;
33902;SDS011;20194;50.950;5.346;2023-05-07T13:42:12;7.97;;;3.42;;
33902;SDS011;20194;50.950;5.346;2023-05-07T13:44:38;9.45;;;3.72;;
33902;SDS011;20194;50.950;5.346;2023-05-07T13:47:03;7.38;;;3.40;;
33902;SDS011;20194;50.950;5.346;2023-05-07T13:49:29;13.98;;;3.90;;
33902;SDS011;20194;50.950;5.346;2023-05-07T13:51:55;8.27;;;2.70;;
33902;SDS011;20194;50.950;5.346;2023-05-07T13:54:20;7.95;;;3.00;;
33902;SDS011;20194;50.950;5.346;2023-05-07T13:56:46;5.65;;;2.25;;
33902;SDS011;20194;50.950;5.346;2023-05-07T13:59:12;10.32;;;2.95;;
33902;SDS011;20194;50.950;5.346;2023-05-07T14:01:39;7.05;;;2.50;;
33902;SDS011;20194;50.950;5.346;2023-05-07T14:04:05;6.05;;;2.60;;
33902;SDS011;20194;50.950;5.346;2023-05-07T14:06:31;9.93;;;3.20;;
33902;SDS011;20194;50.950;5.346;2023-05-07T14:08:56;8.38;;;3.40;;
33902;SDS011;20194;50.950;5.346;2023-05-07T14:11:23;7.18;;;3.58;;
33902;SDS011;20194;50.950;5.346;2023-05-07T14:13:49;8.45;;;3.97;;
33902;SDS011;20194;50.950;5.346;2023-05-07T14:16:15;6.72;;;2.80;;
33902;SDS011;20194;50.950;5.346;2023-05-07T14:18:40;6.57;;;2.47;;
33902;SDS011;20194;50.950;5.346;2023-05-07T14:21:08;5.93;;;2.60;;
33902;SDS011;20194;50.950;5.346;2023-05-07T14:23:36;5.03;;;2.33;;
33902;SDS011;20194;50.950;5.346;2023-05-07T14:26:02;9.60;;;2.78;;
33902;SDS011;20194;50.950;5.346;2023-05-07T14:28:28;5.78;;;3.17;;
33902;SDS011;20194;50.950;5.346;2023-05-07T14:30:54;7.03;;;2.58;;
33902;SDS011;20194;50.950;5.346;2023-05-07T14:33:19;5.72;;;2.40;;
33902;SDS011;20194;50.950;5.346;2023-05-07T14:35:45;2.55;;;1.73;;
33902;SDS011;20194;50.950;5.346;2023-05-07T14:38:13;8.55;;;2.47;;
33902;SDS011;20194;50.950;5.346;2023-05-07T14:40:40;6.32;;;2.55;;
33902;SDS011;20194;50.950;5.346;2023-05-07T14:43:06;12.40;;;2.55;;
33902;SDS011;20194;50.950;5.346;2023-05-07T14:45:31;7.55;;;2.50;;
33902;SDS011;20194;50.950;5.346;2023-05-07T14:47:57;8.13;;;3.25;;
33902;SDS011;20194;50.950;5.346;2023-05-07T14:50:22;6.40;;;2.50;;